sensor_id;sensor_type;location;lat;lon;timestamp;P1;durP1;ratioP1;P2;durP2;ratioP2
29254;SDS011;16277;48.890;2.306;2023-03-15T00:01:50;3.00;;;2.70;;
29254;SDS011;16277;48.890;2.306;2023-03-15T00:16:56;3.50;;;2.80;;
29254;SDS011;16277;48.890;2.306;2023-03-15T00:32:00;4.57;;;2.73;;
29254;SDS011;16277;48.890;2.306;2023-03-15T00:47:05;2.83;;;2.63;;
29254;SDS011;16277;48.890;2.306;2023-03-15T01:02:09;7.93;;;4.60;;
29254;SDS011;16277;48.890;2.306;2023-03-15T01:17:15;7.63;;;2.70;;
29254;SDS011;16277;48.890;2.306;2023-03-15T01:32:19;3.47;;;2.67;;
29254;SDS011;16277;48.890;2.306;2023-03-15T01:47:24;9.30;;;3.30;;
29254;SDS011;16277;48.890;2.306;2023-03-15T02:02:31;5.03;;;4.07;;
29254;SDS011;16277;48.890;2.306;2023-03-15T02:17:36;4.27;;;3.80;;
29254;SDS011;16277;48.890;2.306;2023-03-15T02:32:43;15.13;;;3.53;;
29254;SDS011;16277;48.890;2.306;2023-03-15T02:47:48;3.80;;;3.07;;
29254;SDS011;16277;48.890;2.306;2023-03-15T03:02:53;7.37;;;2.40;;
29254;SDS011;16277;48.890;2.306;2023-03-15T03:17:57;2.87;;;2.63;;
29254;SDS011;16277;48.890;2.306;2023-03-15T03:33:02;5.50;;;2.93;;
29254;SDS011;16277;48.890;2.306;2023-03-15T03:48:08;8.00;;;3.03;;
29254;SDS011;16277;48.890;2.306;2023-03-15T04:03:12;5.80;;;2.67;;
29254;SDS011;16277;48.890;2.306;2023-03-15T04:18:22;7.37;;;3.00;;
29254;SDS011;16277;48.890;2.306;2023-03-15T04:33:27;18.17;;;4.03;;
29254;SDS011;16277;48.890;2.306;2023-03-15T04:48:46;18.20;;;3.20;;
29254;SDS011;16277;48.890;2.306;2023-03-15T05:04:16;7.57;;;3.47;;
29254;SDS011;16277;48.890;2.306;2023-03-15T05:19:46;13.50;;;5.73;;
29254;SDS011;16277;48.890;2.306;2023-03-15T05:35:06;5.77;;;2.53;;
29254;SDS011;16277;48.890;2.306;2023-03-15T05:50:18;5.47;;;3.30;;
29254;SDS011;16277;48.890;2.306;2023-03-15T06:05:39;9.53;;;4.13;;
29254;SDS011;16277;48.890;2.306;2023-03-15T06:20:49;19.33;;;3.53;;
29254;SDS011;16277;48.890;2.306;2023-03-15T06:35:54;13.53;;;4.07;;
29254;SDS011;16277;48.890;2.306;2023-03-15T06:50:59;13.00;;;3.07;;
29254;SDS011;16277;48.890;2.306;2023-03-15T07:06:04;17.40;;;3.63;;
29254;SDS011;16277;48.890;2.306;2023-03-15T07:21:09;14.27;;;4.37;;
29254;SDS011;16277;48.890;2.306;2023-03-15T07:36:13;7.77;;;3.27;;
29254;SDS011;16277;48.890;2.306;2023-03-15T07:51:18;14.47;;;4.77;;
29254;SDS011;16277;48.890;2.306;2023-03-15T08:06:22;17.90;;;4.87;;
29254;SDS011;16277;48.890;2.306;2023-03-15T08:21:27;14.57;;;4.67;;
29254;SDS011;16277;48.890;2.306;2023-03-15T08:36:31;59.20;;;10.60;;
29254;SDS011;16277;48.890;2.306;2023-03-15T08:51:36;51.77;;;7.53;;
29254;SDS011;16277;48.890;2.306;2023-03-15T09:06:41;12.37;;;4.03;;
29254;SDS011;16277;48.890;2.306;2023-03-15T09:21:45;15.60;;;4.00;;
29254;SDS011;16277;48.890;2.306;2023-03-15T09:36:50;25.77;;;3.83;;
29254;SDS011;16277;48.890;2.306;2023-03-15T09:51:55;6.70;;;3.97;;
29254;SDS011;16277;48.890;2.306;2023-03-15T10:07:04;16.37;;;4.40;;
29254;SDS011;16277;48.890;2.306;2023-03-15T10:22:18;18.73;;;4.27;;
29254;SDS011;16277;48.890;2.306;2023-03-15T10:37:27;14.07;;;4.20;;
29254;SDS011;16277;48.890;2.306;2023-03-15T10:52:33;17.97;;;4.27;;
29254;SDS011;16277;48.890;2.306;2023-03-15T11:07:41;10.60;;;2.90;;
29254;SDS011;16277;48.890;2.306;2023-03-15T11:22:57;19.33;;;5.63;;
29254;SDS011;16277;48.890;2.306;2023-03-15T11:38:03;3.07;;;2.17;;
29254;SDS011;16277;48.890;2.306;2023-03-15T11:53:17;7.23;;;2.40;;
29254;SDS011;16277;48.890;2.306;2023-03-15T12:08:24;2.97;;;1.97;;
29254;SDS011;16277;48.890;2.306;2023-03-15T12:23:46;7.27;;;2.90;;
29254;SDS011;16277;48.890;2.306;2023-03-15T12:54:06;10.37;;;2.43;;
29254;SDS011;16277;48.890;2.306;2023-03-15T13:09:20;3.80;;;2.00;;
29254;SDS011;16277;48.890;2.306;2023-03-15T13:24:40;3.33;;;2.40;;
29254;SDS011;16277;48.890;2.306;2023-03-15T13:39:55;3.50;;;2.07;;
29254;SDS011;16277;48.890;2.306;2023-03-15T13:55:03;3.23;;;2.00;;
29254;SDS011;16277;48.890;2.306;2023-03-15T14:10:18;6.27;;;3.07;;
29254;SDS011;16277;48.890;2.306;2023-03-15T14:25:33;3.30;;;3.00;;
29254;SDS011;16277;48.890;2.306;2023-03-15T14:40:39;2.77;;;1.90;;
29254;SDS011;16277;48.890;2.306;2023-03-15T14:55:44;2.40;;;1.43;;
29254;SDS011;16277;48.890;2.306;2023-03-15T15:10:49;4.23;;;2.33;;
29254;SDS011;16277;48.890;2.306;2023-03-15T15:25:56;2.83;;;1.60;;
29254;SDS011;16277;48.890;2.306;2023-03-15T15:41:01;6.10;;;3.10;;
29254;SDS011;16277;48.890;2.306;2023-03-15T15:56:07;2.90;;;2.20;;
29254;SDS011;16277;48.890;2.306;2023-03-15T16:11:14;27.03;;;2.40;;
29254;SDS011;16277;48.890;2.306;2023-03-15T16:26:19;13.57;;;2.73;;
29254;SDS011;16277;48.890;2.306;2023-03-15T16:41:24;6.17;;;1.60;;
29254;SDS011;16277;48.890;2.306;2023-03-15T17:11:35;4.60;;;1.57;;
29254;SDS011;16277;48.890;2.306;2023-03-15T17:26:42;5.50;;;2.50;;
29254;SDS011;16277;48.890;2.306;2023-03-15T17:41:47;1.47;;;1.40;;
29254;SDS011;16277;48.890;2.306;2023-03-15T17:56:51;1.80;;;1.70;;
29254;SDS011;16277;48.890;2.306;2023-03-15T18:11:56;7.37;;;2.67;;
29254;SDS011;16277;48.890;2.306;2023-03-15T18:27:01;4.07;;;2.50;;
29254;SDS011;16277;48.890;2.306;2023-03-15T18:42:05;2.73;;;2.50;;
29254;SDS011;16277;48.890;2.306;2023-03-15T18:57:12;9.47;;;3.53;;
29254;SDS011;16277;48.890;2.306;2023-03-15T19:12:16;12.93;;;4.97;;
29254;SDS011;16277;48.890;2.306;2023-03-15T19:27:21;12.23;;;5.30;;
29254;SDS011;16277;48.890;2.306;2023-03-15T19:42:26;10.23;;;5.37;;
29254;SDS011;16277;48.890;2.306;2023-03-15T19:57:31;12.83;;;6.07;;
29254;SDS011;16277;48.890;2.306;2023-03-15T20:12:35;9.90;;;5.27;;
29254;SDS011;16277;48.890;2.306;2023-03-15T20:27:41;11.03;;;6.27;;
29254;SDS011;16277;48.890;2.306;2023-03-15T20:42:46;8.00;;;4.70;;
29254;SDS011;16277;48.890;2.306;2023-03-15T20:57:50;13.40;;;6.60;;
29254;SDS011;16277;48.890;2.306;2023-03-15T21:12:56;11.40;;;6.03;;
29254;SDS011;16277;48.890;2.306;2023-03-15T21:43:05;12.23;;;7.03;;
29254;SDS011;16277;48.890;2.306;2023-03-15T21:58:11;6.30;;;5.50;;
29254;SDS011;16277;48.890;2.306;2023-03-15T22:13:16;14.10;;;5.60;;
29254;SDS011;16277;48.890;2.306;2023-03-15T22:28:20;10.03;;;5.33;;
29254;SDS011;16277;48.890;2.306;2023-03-15T22:43:26;5.80;;;5.27;;
29254;SDS011;16277;48.890;2.306;2023-03-15T22:58:31;8.07;;;3.70;;
29254;SDS011;16277;48.890;2.306;2023-03-15T23:13:36;5.80;;;4.63;;
29254;SDS011;16277;48.890;2.306;2023-03-15T23:28:40;4.90;;;3.70;;
29254;SDS011;16277;48.890;2.306;2023-03-15T23:43:45;3.57;;;3.27;;
29254;SDS011;16277;48.890;2.306;2023-03-15T23:58:49;3.00;;;2.90;;
